»·PEaware :: UAL631 KSFO-KSNA

UAL631 :: KSFO-KSNA

FLIGHT INFORMATION

Flight Status: Arrived
Operator:
United Airlines
More flights by this operator :: More flights under this callsign
Pilot: Matthew M. (8235)
Aircraft: AIRBUS A320
(A320)
More flights by this aircraft type
Origin: KSFO San Francisco Intl
United States
Destination: KSNA John Wayne-Orange Co
United States
More flights between these airports :: More routes between these airports
Route: SSTIK4 CISKO RDHOT OHSEA2
File this flight plan on PilotEdge
Remarks:
Altitude:
(Current/Filed)
37,000ft
Speed:
(Current/Filed)
452kts
Departed: 02-Dec-19 05:09 PM
Arrived: 02-Dec-19 06:56 PM
Distance/Time
Traveled:
323nm/1:46
Distance/Time
To Go:
Arrived

Flight Plot

Page will automatically refresh every two minutes.

Flight plan parsing failed; only flown route is shown


Map Options




Map Legend


Flown Route
Filed Route
Departure Airport
Arrival Airport
Navaid (VOR, NDB)
Fix

Horizontal Profiles

Position Reports

Time Latitude Longitude Heading Altitude Ground
Speed
02-Dec-19 16:43 37.621273 -122.389199 210 21ft 0kts
02-Dec-19 16:44 37.621273 -122.389199 210 21ft 0kts
02-Dec-19 16:45 37.621273 -122.389199 210 21ft 0kts
02-Dec-19 16:46 37.621273 -122.389199 210 21ft 0kts
02-Dec-19 16:47 37.621273 -122.389199 210 21ft 0kts
02-Dec-19 16:48 37.621273 -122.389199 210 21ft 0kts
02-Dec-19 16:49 37.621273 -122.389199 210 21ft 0kts
02-Dec-19 16:50 37.621273 -122.389199 210 21ft 0kts
02-Dec-19 16:51 37.621273 -122.389199 210 21ft 0kts
02-Dec-19 16:52 37.621273 -122.389199 210 21ft 0kts
02-Dec-19 16:53 37.621273 -122.389199 210 21ft 0kts
02-Dec-19 16:54 37.621273 -122.389199 210 21ft 0kts
02-Dec-19 16:55 37.621273 -122.389199 210 21ft 0kts
02-Dec-19 16:56 37.621273 -122.389199 210 21ft 0kts
02-Dec-19 16:57 37.621490 -122.389053 184 21ft 2kts
02-Dec-19 16:58 37.621727 -122.389327 87 21ft 0kts
02-Dec-19 16:59 37.621720 -122.389398 84 21ft 0kts
02-Dec-19 17:00 37.621720 -122.389398 84 21ft 0kts
02-Dec-19 17:01 37.621720 -122.389398 84 21ft 0kts
02-Dec-19 17:02 37.621879 -122.387887 82 21ft 16kts
02-Dec-19 17:03 37.620445 -122.383778 117 21ft 21kts
02-Dec-19 17:04 37.617949 -122.379486 170 21ft 25kts
02-Dec-19 17:05 37.613706 -122.381592 207 21ft 26kts
02-Dec-19 17:06 37.609451 -122.383674 111 21ft 11kts
02-Dec-19 17:07 37.609189 -122.382946 117 21ft 7kts
02-Dec-19 17:08 37.614097 -122.378851 28 21ft 107kts
02-Dec-19 17:09 37.637644 -122.363800 14 1034ft 175kts
02-Dec-19 17:10 37.668033 -122.361656 3 2656ft 199kts
02-Dec-19 17:11 37.701906 -122.375935 307 3838ft 254kts
02-Dec-19 17:12 37.703486 -122.431997 234 5531ft 275kts
02-Dec-19 17:13 37.662942 -122.455890 184 7604ft 271kts
02-Dec-19 17:14 37.614759 -122.460924 185 9602ft 278kts
02-Dec-19 17:15 37.562945 -122.466536 186 11000ft 306kts
02-Dec-19 17:16 37.507066 -122.471306 175 11927ft 340kts
02-Dec-19 17:17 37.456354 -122.435195 138 13400ft 356kts
02-Dec-19 17:18 37.412699 -122.381801 139 14828ft 363kts
02-Dec-19 17:19 37.368288 -122.327918 139 16149ft 370kts
02-Dec-19 17:20 37.321693 -122.271703 139 17420ft 376kts
02-Dec-19 17:21 37.271420 -122.211234 140 18681ft 383kts
02-Dec-19 17:22 37.219948 -122.149468 140 19855ft 390kts
02-Dec-19 17:23 37.169971 -122.089615 140 20913ft 396kts
02-Dec-19 17:24 37.120625 -122.030631 141 21894ft 401kts
02-Dec-19 17:25 37.072879 -121.973660 142 22811ft 405kts
02-Dec-19 17:26 37.026266 -121.918143 144 23669ft 408kts
02-Dec-19 17:27 36.977857 -121.860588 145 24559ft 410kts
02-Dec-19 17:28 36.928584 -121.802142 146 25321ft 414kts
02-Dec-19 17:29 36.886014 -121.751734 146 25944ft 418kts
02-Dec-19 17:30 36.838118 -121.695121 146 26566ft 424kts
02-Dec-19 17:31 36.787954 -121.635908 146 27248ft 428kts
02-Dec-19 17:32 36.735347 -121.573942 147 27893ft 433kts
02-Dec-19 17:33 36.681480 -121.510601 147 28566ft 436kts
02-Dec-19 17:34 36.629868 -121.450052 147 29126ft 440kts
02-Dec-19 17:35 36.585280 -121.397840 147 29532ft 445kts
02-Dec-19 17:36 36.535705 -121.339880 148 30002ft 449kts
02-Dec-19 17:37 36.486747 -121.282726 148 30501ft 450kts
02-Dec-19 17:38 36.435387 -121.222853 148 31122ft 448kts
02-Dec-19 17:39 36.383477 -121.162940 150 31665ft 445kts
02-Dec-19 17:40 36.329563 -121.107191 153 32261ft 440kts
02-Dec-19 17:41 36.275361 -121.051599 154 32802ft 439kts
02-Dec-19 17:42 36.220300 -120.995232 154 33277ft 439kts
02-Dec-19 17:43 36.166228 -120.939967 155 33751ft 438kts
02-Dec-19 17:44 36.109450 -120.882057 155 34222ft 438kts
02-Dec-19 17:45 36.053125 -120.824732 155 34612ft 439kts
02-Dec-19 17:46 35.997704 -120.768386 155 35081ft 437kts
02-Dec-19 17:47 35.940088 -120.709971 155 35462ft 438kts
02-Dec-19 17:48 35.894122 -120.663395 155 35903ft 435kts
02-Dec-19 17:49 35.841114 -120.609854 155 36243ft 437kts
02-Dec-19 17:50 35.787667 -120.555900 155 36758ft 433kts
02-Dec-19 17:51 35.731738 -120.499588 155 37124ft 434kts
02-Dec-19 17:52 35.673899 -120.441495 155 37153ft 434kts
02-Dec-19 17:53 35.621422 -120.388959 155 37154ft 434kts
02-Dec-19 17:54 35.574161 -120.341673 156 37150ft 434kts
02-Dec-19 17:55 35.533877 -120.301274 156 37156ft 434kts
02-Dec-19 17:56 35.479964 -120.247305 156 37165ft 433kts
02-Dec-19 17:57 35.424900 -120.192300 156 37150ft 433kts
02-Dec-19 17:58 35.369743 -120.137300 156 37155ft 433kts
02-Dec-19 17:59 35.313146 -120.080971 156 37152ft 432kts
02-Dec-19 18:00 35.259289 -120.027467 156 37142ft 432kts
02-Dec-19 18:01 35.204407 -119.973040 156 37149ft 432kts
02-Dec-19 18:02 35.149780 -119.918964 156 37157ft 432kts
02-Dec-19 18:03 35.097376 -119.867182 156 37155ft 432kts
02-Dec-19 18:04 35.034117 -119.798302 150 37161ft 445kts
02-Dec-19 18:05 34.976043 -119.728062 151 37216ft 444kts
02-Dec-19 18:06 34.914073 -119.653309 152 37228ft 440kts
02-Dec-19 18:07 34.868240 -119.598158 152 37231ft 438kts
02-Dec-19 18:08 34.818944 -119.538945 153 37190ft 436kts
02-Dec-19 18:09 34.770871 -119.481230 153 36611ft 428kts
02-Dec-19 18:10 34.722404 -119.423278 153 35228ft 432kts
02-Dec-19 18:11 34.671750 -119.362824 152 33689ft 437kts
02-Dec-19 18:12 34.632070 -119.315493 152 32471ft 439kts
02-Dec-19 18:13 34.590466 -119.265418 151 31526ft 433kts
02-Dec-19 18:14 34.548553 -119.215013 151 30578ft 425kts
02-Dec-19 18:15 34.499378 -119.156072 151 29447ft 416kts
02-Dec-19 18:16 34.449671 -119.098231 150 28300ft 406kts
02-Dec-19 18:18 34.401897 -119.042736 150 27277ft 396kts
02-Dec-19 18:19 34.354836 -118.988923 150 26113ft 388kts
02-Dec-19 18:20 34.310498 -118.938391 149 25056ft 381kts
02-Dec-19 18:21 34.265290 -118.886906 148 23965ft 375kts
02-Dec-19 18:22 34.218031 -118.841950 168 22856ft 343kts
02-Dec-19 18:23 34.164624 -118.820331 171 21833ft 329kts
02-Dec-19 18:24 34.111500 -118.799309 171 20827ft 323kts
02-Dec-19 18:25 34.050689 -118.775447 170 19656ft 321kts
02-Dec-19 18:26 33.979896 -118.748068 169 18282ft 316kts
02-Dec-19 18:27 33.928281 -118.728119 168 17271ft 314kts
02-Dec-19 18:28 33.868650 -118.705094 168 16103ft 311kts
02-Dec-19 18:29 33.812840 -118.683584 166 14828ft 314kts
02-Dec-19 18:30 33.760431 -118.663398 166 13756ft 310kts
02-Dec-19 18:31 33.709845 -118.644872 166 12755ft 306kts
02-Dec-19 18:32 33.668316 -118.606779 117 12244ft 339kts
02-Dec-19 18:33 33.663424 -118.539438 87 11481ft 338kts
02-Dec-19 18:34 33.667896 -118.470280 86 10352ft 336kts
02-Dec-19 18:35 33.671975 -118.402067 87 9845ft 313kts
02-Dec-19 18:36 33.675289 -118.344154 87 9344ft 298kts
02-Dec-19 18:36 33.677782 -118.299270 87 8357ft 293kts
02-Dec-19 18:38 33.681512 -118.230994 87 6806ft 285kts
02-Dec-19 18:39 33.684461 -118.176538 87 5582ft 278kts
02-Dec-19 18:39 33.686815 -118.132764 87 5011ft 273kts
02-Dec-19 18:40 33.689396 -118.084093 88 5002ft 274kts
02-Dec-19 18:42 33.692064 -118.033943 88 5001ft 253kts
02-Dec-19 18:43 33.694240 -117.993331 88 5006ft 229kts
02-Dec-19 18:43 33.695848 -117.963161 87 5030ft 221kts
02-Dec-19 18:44 33.712146 -117.935629 27 4689ft 207kts
02-Dec-19 18:45 33.740626 -117.917971 27 4075ft 193kts
02-Dec-19 18:46 33.767254 -117.901482 27 3518ft 189kts
02-Dec-19 18:47 33.789881 -117.873565 76 2859ft 174kts
02-Dec-19 18:48 33.788205 -117.845981 117 2387ft 146kts
02-Dec-19 18:49 33.772493 -117.826478 156 1991ft 148kts
02-Dec-19 18:51 33.746884 -117.824789 200 1471ft 144kts
02-Dec-19 18:51 33.728617 -117.835885 207 1084ft 144kts
02-Dec-19 18:52 33.708592 -117.848434 207 657ft 144kts
02-Dec-19 18:53 33.689490 -117.860138 207 261ft 142kts
02-Dec-19 18:54 33.671941 -117.871224 207 65ft 75kts
02-Dec-19 18:55 33.669221 -117.871727 133 65ft 3kts

Navigation Log

Ident Type
Flight plan parsing failed, navigation log unavailable